sensor_id;sensor_type;location;lat;lon;timestamp;temperature;humidity
8436;DHT22;4255;48.730;9.156;2022-08-19T00:00:29;21.70;99.90
8436;DHT22;4255;48.730;9.156;2022-08-19T00:02:55;21.80;99.90
8436;DHT22;4255;48.730;9.156;2022-08-19T00:05:21;21.80;99.90
8436;DHT22;4255;48.730;9.156;2022-08-19T00:07:47;21.90;99.90
8436;DHT22;4255;48.730;9.156;2022-08-19T00:10:15;21.80;99.90
8436;DHT22;4255;48.730;9.156;2022-08-19T00:12:41;21.80;99.90
8436;DHT22;4255;48.730;9.156;2022-08-19T00:15:10;21.90;99.90
8436;DHT22;4255;48.730;9.156;2022-08-19T00:17:42;21.80;99.90
8436;DHT22;4255;48.730;9.156;2022-08-19T00:20:10;21.80;99.90
8436;DHT22;4255;48.730;9.156;2022-08-19T00:22:37;21.80;99.90
8436;DHT22;4255;48.730;9.156;2022-08-19T00:25:04;21.80;99.90
8436;DHT22;4255;48.730;9.156;2022-08-19T00:27:30;21.80;99.90
8436;DHT22;4255;48.730;9.156;2022-08-19T00:29:56;21.70;99.90
8436;DHT22;4255;48.730;9.156;2022-08-19T00:32:22;21.70;99.90
8436;DHT22;4255;48.730;9.156;2022-08-19T00:34:47;21.70;99.90
8436;DHT22;4255;48.730;9.156;2022-08-19T00:37:13;21.60;99.90
8436;DHT22;4255;48.730;9.156;2022-08-19T00:39:39;21.60;99.90
8436;DHT22;4255;48.730;9.156;2022-08-19T00:42:04;21.60;99.90
8436;DHT22;4255;48.730;9.156;2022-08-19T00:44:31;21.50;99.90
8436;DHT22;4255;48.730;9.156;2022-08-19T00:46:58;21.30;99.90
8436;DHT22;4255;48.730;9.156;2022-08-19T00:49:37;21.00;99.90
8436;DHT22;4255;48.730;9.156;2022-08-19T00:52:09;21.10;99.90
8436;DHT22;4255;48.730;9.156;2022-08-19T00:54:38;21.30;99.90
8436;DHT22;4255;48.730;9.156;2022-08-19T00:57:09;21.40;99.90
8436;DHT22;4255;48.730;9.156;2022-08-19T00:59:38;21.40;99.90
8436;DHT22;4255;48.730;9.156;2022-08-19T01:02:04;21.30;99.90
8436;DHT22;4255;48.730;9.156;2022-08-19T01:04:30;21.30;99.90
8436;DHT22;4255;48.730;9.156;2022-08-19T01:06:56;21.40;99.90
8436;DHT22;4255;48.730;9.156;2022-08-19T01:09:22;21.40;99.90
8436;DHT22;4255;48.730;9.156;2022-08-19T01:11:48;21.60;99.90
8436;DHT22;4255;48.730;9.156;2022-08-19T01:14:14;21.60;99.90
8436;DHT22;4255;48.730;9.156;2022-08-19T01:16:41;21.50;99.90
8436;DHT22;4255;48.730;9.156;2022-08-19T01:19:18;21.40;99.90
8436;DHT22;4255;48.730;9.156;2022-08-19T01:21:52;21.40;99.90
8436;DHT22;4255;48.730;9.156;2022-08-19T01:24:20;21.40;99.90
8436;DHT22;4255;48.730;9.156;2022-08-19T01:26:47;21.50;99.90
8436;DHT22;4255;48.730;9.156;2022-08-19T01:29:12;21.40;99.90
8436;DHT22;4255;48.730;9.156;2022-08-19T01:31:39;21.20;99.90
8436;DHT22;4255;48.730;9.156;2022-08-19T01:34:05;21.10;99.90
8436;DHT22;4255;48.730;9.156;2022-08-19T01:36:32;21.00;99.90
8436;DHT22;4255;48.730;9.156;2022-08-19T01:38:59;21.10;99.90
8436;DHT22;4255;48.730;9.156;2022-08-19T01:41:26;20.90;99.90
8436;DHT22;4255;48.730;9.156;2022-08-19T01:43:52;20.90;99.90
8436;DHT22;4255;48.730;9.156;2022-08-19T01:46:18;21.00;99.90
8436;DHT22;4255;48.730;9.156;2022-08-19T01:48:44;21.10;99.90
8436;DHT22;4255;48.730;9.156;2022-08-19T01:51:11;21.20;99.90
8436;DHT22;4255;48.730;9.156;2022-08-19T01:53:39;21.30;99.90
8436;DHT22;4255;48.730;9.156;2022-08-19T01:56:05;21.40;99.90
8436;DHT22;4255;48.730;9.156;2022-08-19T01:58:36;21.40;99.90
8436;DHT22;4255;48.730;9.156;2022-08-19T02:01:04;21.30;99.90
8436;DHT22;4255;48.730;9.156;2022-08-19T02:03:30;21.20;99.90
8436;DHT22;4255;48.730;9.156;2022-08-19T02:05:59;21.10;99.90
8436;DHT22;4255;48.730;9.156;2022-08-19T02:08:26;21.20;99.90
8436;DHT22;4255;48.730;9.156;2022-08-19T02:10:53;20.90;99.90
8436;DHT22;4255;48.730;9.156;2022-08-19T02:13:18;20.90;99.90
8436;DHT22;4255;48.730;9.156;2022-08-19T02:15:44;20.80;99.90
8436;DHT22;4255;48.730;9.156;2022-08-19T02:18:10;20.80;99.90
8436;DHT22;4255;48.730;9.156;2022-08-19T02:20:37;20.80;99.90
8436;DHT22;4255;48.730;9.156;2022-08-19T02:23:04;20.80;99.90
8436;DHT22;4255;48.730;9.156;2022-08-19T02:25:30;20.90;99.90
8436;DHT22;4255;48.730;9.156;2022-08-19T02:27:55;20.80;99.90
8436;DHT22;4255;48.730;9.156;2022-08-19T02:30:21;20.90;99.90
8436;DHT22;4255;48.730;9.156;2022-08-19T02:32:47;20.80;99.90
8436;DHT22;4255;48.730;9.156;2022-08-19T02:35:13;20.80;99.90
8436;DHT22;4255;48.730;9.156;2022-08-19T02:37:41;20.80;99.90
8436;DHT22;4255;48.730;9.156;2022-08-19T02:40:27;20.70;99.90
8436;DHT22;4255;48.730;9.156;2022-08-19T02:42:52;20.70;99.90
8436;DHT22;4255;48.730;9.156;2022-08-19T02:45:18;20.80;99.90
8436;DHT22;4255;48.730;9.156;2022-08-19T02:47:44;20.70;99.90
8436;DHT22;4255;48.730;9.156;2022-08-19T02:50:09;20.80;99.90
8436;DHT22;4255;48.730;9.156;2022-08-19T02:52:36;20.70;99.90
8436;DHT22;4255;48.730;9.156;2022-08-19T02:55:02;20.70;99.90
8436;DHT22;4255;48.730;9.156;2022-08-19T02:57:30;20.80;99.90
8436;DHT22;4255;48.730;9.156;2022-08-19T02:59:57;20.70;99.90
8436;DHT22;4255;48.730;9.156;2022-08-19T03:02:22;20.50;99.90
8436;DHT22;4255;48.730;9.156;2022-08-19T03:04:48;20.60;99.90
8436;DHT22;4255;48.730;9.156;2022-08-19T03:07:16;20.50;99.90
8436;DHT22;4255;48.730;9.156;2022-08-19T03:09:41;20.50;99.90
8436;DHT22;4255;48.730;9.156;2022-08-19T03:12:10;20.60;99.90
8436;DHT22;4255;48.730;9.156;2022-08-19T03:14:37;20.60;99.90
8436;DHT22;4255;48.730;9.156;2022-08-19T03:17:03;20.60;99.90
8436;DHT22;4255;48.730;9.156;2022-08-19T03:19:30;20.60;99.90
8436;DHT22;4255;48.730;9.156;2022-08-19T03:21:57;20.60;99.90
8436;DHT22;4255;48.730;9.156;2022-08-19T03:24:23;20.60;99.90
8436;DHT22;4255;48.730;9.156;2022-08-19T03:26:54;20.70;99.90
8436;DHT22;4255;48.730;9.156;2022-08-19T03:29:24;20.50;99.90
8436;DHT22;4255;48.730;9.156;2022-08-19T03:31:50;20.40;99.90
8436;DHT22;4255;48.730;9.156;2022-08-19T03:34:20;20.30;99.90
8436;DHT22;4255;48.730;9.156;2022-08-19T03:36:46;20.30;99.90
8436;DHT22;4255;48.730;9.156;2022-08-19T03:39:12;20.20;99.90
8436;DHT22;4255;48.730;9.156;2022-08-19T03:41:41;20.30;99.90
8436;DHT22;4255;48.730;9.156;2022-08-19T03:44:07;20.50;99.90
8436;DHT22;4255;48.730;9.156;2022-08-19T03:46:35;20.30;99.90
8436;DHT22;4255;48.730;9.156;2022-08-19T03:49:03;20.30;99.90
8436;DHT22;4255;48.730;9.156;2022-08-19T03:51:36;20.50;99.90
8436;DHT22;4255;48.730;9.156;2022-08-19T03:54:05;20.50;99.90
8436;DHT22;4255;48.730;9.156;2022-08-19T03:56:34;20.60;99.90
8436;DHT22;4255;48.730;9.156;2022-08-19T03:59:01;20.50;99.90
8436;DHT22;4255;48.730;9.156;2022-08-19T04:01:28;20.50;99.90
8436;DHT22;4255;48.730;9.156;2022-08-19T04:03:56;20.40;99.90
8436;DHT22;4255;48.730;9.156;2022-08-19T04:06:24;20.50;99.90
8436;DHT22;4255;48.730;9.156;2022-08-19T04:08:52;20.30;99.90
8436;DHT22;4255;48.730;9.156;2022-08-19T04:14:24;20.20;99.90
8436;DHT22;4255;48.730;9.156;2022-08-19T04:16:51;20.30;99.90
8436;DHT22;4255;48.730;9.156;2022-08-19T04:19:18;20.40;99.90
8436;DHT22;4255;48.730;9.156;2022-08-19T04:21:46;20.30;99.90
8436;DHT22;4255;48.730;9.156;2022-08-19T04:24:14;20.20;99.90
8436;DHT22;4255;48.730;9.156;2022-08-19T04:26:40;20.30;99.90
8436;DHT22;4255;48.730;9.156;2022-08-19T04:29:13;20.20;99.90
8436;DHT22;4255;48.730;9.156;2022-08-19T04:31:40;20.20;99.90
8436;DHT22;4255;48.730;9.156;2022-08-19T04:34:09;20.20;99.90
8436;DHT22;4255;48.730;9.156;2022-08-19T04:36:37;20.20;99.90
8436;DHT22;4255;48.730;9.156;2022-08-19T04:39:07;20.30;99.90
8436;DHT22;4255;48.730;9.156;2022-08-19T04:41:33;20.20;99.90
8436;DHT22;4255;48.730;9.156;2022-08-19T04:44:18;20.10;99.90
8436;DHT22;4255;48.730;9.156;2022-08-19T04:46:45;20.10;99.90
8436;DHT22;4255;48.730;9.156;2022-08-19T04:49:13;20.20;99.90
8436;DHT22;4255;48.730;9.156;2022-08-19T04:51:41;20.20;99.90
8436;DHT22;4255;48.730;9.156;2022-08-19T04:54:07;20.10;99.90
8436;DHT22;4255;48.730;9.156;2022-08-19T04:56:33;20.10;99.90
8436;DHT22;4255;48.730;9.156;2022-08-19T04:58:59;20.00;99.90
8436;DHT22;4255;48.730;9.156;2022-08-19T05:01:31;19.80;99.90
8436;DHT22;4255;48.730;9.156;2022-08-19T05:04:03;19.70;99.90
8436;DHT22;4255;48.730;9.156;2022-08-19T05:06:30;19.80;99.90
8436;DHT22;4255;48.730;9.156;2022-08-19T05:08:59;19.60;99.90
8436;DHT22;4255;48.730;9.156;2022-08-19T05:11:28;19.80;99.90
8436;DHT22;4255;48.730;9.156;2022-08-19T05:13:56;19.80;99.90
8436;DHT22;4255;48.730;9.156;2022-08-19T05:16:23;20.00;99.90
8436;DHT22;4255;48.730;9.156;2022-08-19T05:18:49;19.90;99.90
8436;DHT22;4255;48.730;9.156;2022-08-19T05:21:34;19.90;99.90
8436;DHT22;4255;48.730;9.156;2022-08-19T05:24:20;20.00;99.90
8436;DHT22;4255;48.730;9.156;2022-08-19T05:26:48;19.90;99.90
8436;DHT22;4255;48.730;9.156;2022-08-19T05:29:16;19.90;99.90
8436;DHT22;4255;48.730;9.156;2022-08-19T05:31:42;20.10;99.90
8436;DHT22;4255;48.730;9.156;2022-08-19T05:34:08;20.00;99.90
8436;DHT22;4255;48.730;9.156;2022-08-19T05:36:40;20.20;99.90
8436;DHT22;4255;48.730;9.156;2022-08-19T05:39:15;20.20;99.90
8436;DHT22;4255;48.730;9.156;2022-08-19T05:41:50;20.20;99.90
8436;DHT22;4255;48.730;9.156;2022-08-19T05:44:16;20.00;99.90
8436;DHT22;4255;48.730;9.156;2022-08-19T05:46:46;19.90;99.90
8436;DHT22;4255;48.730;9.156;2022-08-19T05:49:15;20.00;99.90
8436;DHT22;4255;48.730;9.156;2022-08-19T05:51:42;20.30;99.90
8436;DHT22;4255;48.730;9.156;2022-08-19T05:54:08;20.40;99.90
8436;DHT22;4255;48.730;9.156;2022-08-19T05:56:34;20.30;99.90
8436;DHT22;4255;48.730;9.156;2022-08-19T05:59:04;20.30;99.90
8436;DHT22;4255;48.730;9.156;2022-08-19T06:01:35;20.20;99.90
8436;DHT22;4255;48.730;9.156;2022-08-19T06:04:02;20.20;99.90
8436;DHT22;4255;48.730;9.156;2022-08-19T06:06:27;20.10;99.90
8436;DHT22;4255;48.730;9.156;2022-08-19T06:08:53;20.10;99.90
8436;DHT22;4255;48.730;9.156;2022-08-19T06:11:25;20.10;99.90
8436;DHT22;4255;48.730;9.156;2022-08-19T06:13:59;20.10;99.90
8436;DHT22;4255;48.730;9.156;2022-08-19T06:16:26;20.30;99.90
8436;DHT22;4255;48.730;9.156;2022-08-19T06:18:53;20.40;99.90
8436;DHT22;4255;48.730;9.156;2022-08-19T06:21:24;20.30;99.90
8436;DHT22;4255;48.730;9.156;2022-08-19T06:23:51;20.50;99.90
8436;DHT22;4255;48.730;9.156;2022-08-19T06:26:18;20.40;99.90
8436;DHT22;4255;48.730;9.156;2022-08-19T06:28:45;20.50;99.90
8436;DHT22;4255;48.730;9.156;2022-08-19T06:31:13;20.40;99.90
8436;DHT22;4255;48.730;9.156;2022-08-19T06:33:40;20.30;99.90
8436;DHT22;4255;48.730;9.156;2022-08-19T06:36:06;20.30;99.90
8436;DHT22;4255;48.730;9.156;2022-08-19T06:38:32;20.40;99.90
8436;DHT22;4255;48.730;9.156;2022-08-19T06:41:02;20.30;99.90
8436;DHT22;4255;48.730;9.156;2022-08-19T06:43:28;20.30;99.90
8436;DHT22;4255;48.730;9.156;2022-08-19T06:45:54;20.30;99.90
8436;DHT22;4255;48.730;9.156;2022-08-19T06:48:20;20.20;99.90
8436;DHT22;4255;48.730;9.156;2022-08-19T06:50:45;20.10;99.90
8436;DHT22;4255;48.730;9.156;2022-08-19T06:53:11;20.10;99.90
8436;DHT22;4255;48.730;9.156;2022-08-19T06:55:36;20.20;99.90
8436;DHT22;4255;48.730;9.156;2022-08-19T06:58:04;20.00;99.90
8436;DHT22;4255;48.730;9.156;2022-08-19T07:00:30;19.90;99.90
8436;DHT22;4255;48.730;9.156;2022-08-19T07:02:55;19.90;99.90
8436;DHT22;4255;48.730;9.156;2022-08-19T07:05:21;19.80;99.90
8436;DHT22;4255;48.730;9.156;2022-08-19T07:07:47;20.00;99.90
8436;DHT22;4255;48.730;9.156;2022-08-19T07:10:12;20.10;99.90
8436;DHT22;4255;48.730;9.156;2022-08-19T07:12:38;20.30;99.90
8436;DHT22;4255;48.730;9.156;2022-08-19T07:15:07;20.20;99.90
8436;DHT22;4255;48.730;9.156;2022-08-19T07:17:36;20.00;99.90
8436;DHT22;4255;48.730;9.156;2022-08-19T07:20:06;19.80;99.90
8436;DHT22;4255;48.730;9.156;2022-08-19T07:22:33;19.90;99.90
8436;DHT22;4255;48.730;9.156;2022-08-19T07:24:59;19.90;99.90
8436;DHT22;4255;48.730;9.156;2022-08-19T07:27:25;19.80;99.90
8436;DHT22;4255;48.730;9.156;2022-08-19T07:29:54;19.80;99.90
8436;DHT22;4255;48.730;9.156;2022-08-19T07:32:20;19.90;99.90
8436;DHT22;4255;48.730;9.156;2022-08-19T07:34:45;19.90;99.90
8436;DHT22;4255;48.730;9.156;2022-08-19T07:37:11;19.90;99.90
8436;DHT22;4255;48.730;9.156;2022-08-19T07:39:38;19.90;99.90
8436;DHT22;4255;48.730;9.156;2022-08-19T07:42:08;19.90;99.90
8436;DHT22;4255;48.730;9.156;2022-08-19T07:44:34;20.00;99.90
8436;DHT22;4255;48.730;9.156;2022-08-19T07:47:00;19.90;99.90
8436;DHT22;4255;48.730;9.156;2022-08-19T07:49:27;19.90;99.90
8436;DHT22;4255;48.730;9.156;2022-08-19T07:51:59;19.90;99.90
8436;DHT22;4255;48.730;9.156;2022-08-19T07:54:27;19.90;99.90
8436;DHT22;4255;48.730;9.156;2022-08-19T07:56:56;19.90;99.90
8436;DHT22;4255;48.730;9.156;2022-08-19T07:59:22;19.90;99.90
8436;DHT22;4255;48.730;9.156;2022-08-19T08:01:49;19.80;99.90
8436;DHT22;4255;48.730;9.156;2022-08-19T08:04:17;19.70;99.90
8436;DHT22;4255;48.730;9.156;2022-08-19T08:07:02;19.90;99.90
8436;DHT22;4255;48.730;9.156;2022-08-19T08:09:46;19.90;99.90
8436;DHT22;4255;48.730;9.156;2022-08-19T08:12:14;19.80;99.90
8436;DHT22;4255;48.730;9.156;2022-08-19T08:14:44;19.90;99.90
8436;DHT22;4255;48.730;9.156;2022-08-19T08:17:11;19.90;99.90
8436;DHT22;4255;48.730;9.156;2022-08-19T08:19:38;19.90;99.90
8436;DHT22;4255;48.730;9.156;2022-08-19T08:22:07;19.80;99.90
8436;DHT22;4255;48.730;9.156;2022-08-19T08:24:34;19.80;99.90
8436;DHT22;4255;48.730;9.156;2022-08-19T08:27:01;20.00;99.90
8436;DHT22;4255;48.730;9.156;2022-08-19T08:29:28;19.90;99.90
8436;DHT22;4255;48.730;9.156;2022-08-19T08:31:55;19.80;99.90
8436;DHT22;4255;48.730;9.156;2022-08-19T08:34:21;19.70;99.90
8436;DHT22;4255;48.730;9.156;2022-08-19T08:36:47;19.70;99.90
8436;DHT22;4255;48.730;9.156;2022-08-19T08:39:18;19.80;99.90
8436;DHT22;4255;48.730;9.156;2022-08-19T08:47:10;19.90;99.90
8436;DHT22;4255;48.730;9.156;2022-08-19T08:49:56;19.90;99.90
8436;DHT22;4255;48.730;9.156;2022-08-19T08:52:26;19.90;99.90
8436;DHT22;4255;48.730;9.156;2022-08-19T08:54:55;19.90;99.90
8436;DHT22;4255;48.730;9.156;2022-08-19T08:57:49;19.90;99.90
8436;DHT22;4255;48.730;9.156;2022-08-19T09:00:29;20.00;99.90
8436;DHT22;4255;48.730;9.156;2022-08-19T09:02:55;19.90;99.90
8436;DHT22;4255;48.730;9.156;2022-08-19T09:05:24;20.00;99.90
8436;DHT22;4255;48.730;9.156;2022-08-19T09:08:12;20.00;99.90
8436;DHT22;4255;48.730;9.156;2022-08-19T09:10:52;20.00;99.90
8436;DHT22;4255;48.730;9.156;2022-08-19T09:16:16;20.30;99.90
8436;DHT22;4255;48.730;9.156;2022-08-19T09:18:52;20.20;99.90
8436;DHT22;4255;48.730;9.156;2022-08-19T09:21:19;20.30;99.90
8436;DHT22;4255;48.730;9.156;2022-08-19T09:23:46;20.20;99.90
8436;DHT22;4255;48.730;9.156;2022-08-19T09:26:14;20.20;99.90
8436;DHT22;4255;48.730;9.156;2022-08-19T09:28:42;20.20;99.90
8436;DHT22;4255;48.730;9.156;2022-08-19T09:31:19;20.30;99.90
8436;DHT22;4255;48.730;9.156;2022-08-19T09:33:46;20.50;99.90
8436;DHT22;4255;48.730;9.156;2022-08-19T09:36:15;20.50;99.90
8436;DHT22;4255;48.730;9.156;2022-08-19T09:38:41;20.70;99.90
8436;DHT22;4255;48.730;9.156;2022-08-19T09:41:09;20.70;99.90
8436;DHT22;4255;48.730;9.156;2022-08-19T09:43:35;20.70;99.90
8436;DHT22;4255;48.730;9.156;2022-08-19T09:46:03;20.70;99.90
8436;DHT22;4255;48.730;9.156;2022-08-19T09:48:32;20.70;99.90
8436;DHT22;4255;48.730;9.156;2022-08-19T09:51:27;20.70;99.90
8436;DHT22;4255;48.730;9.156;2022-08-19T09:54:00;20.70;99.90
8436;DHT22;4255;48.730;9.156;2022-08-19T09:56:27;20.80;99.90
8436;DHT22;4255;48.730;9.156;2022-08-19T09:58:52;20.60;99.90
8436;DHT22;4255;48.730;9.156;2022-08-19T10:01:21;20.70;99.90
8436;DHT22;4255;48.730;9.156;2022-08-19T10:03:53;20.60;99.90
8436;DHT22;4255;48.730;9.156;2022-08-19T10:06:21;20.70;99.90
8436;DHT22;4255;48.730;9.156;2022-08-19T10:08:48;21.00;99.90
8436;DHT22;4255;48.730;9.156;2022-08-19T10:11:14;21.10;99.90
8436;DHT22;4255;48.730;9.156;2022-08-19T10:13:42;21.30;99.90
8436;DHT22;4255;48.730;9.156;2022-08-19T10:16:11;21.20;99.90
8436;DHT22;4255;48.730;9.156;2022-08-19T10:18:37;21.40;99.90
8436;DHT22;4255;48.730;9.156;2022-08-19T10:21:07;21.20;99.90
8436;DHT22;4255;48.730;9.156;2022-08-19T10:23:34;21.30;99.90
8436;DHT22;4255;48.730;9.156;2022-08-19T10:26:00;21.20;99.90
8436;DHT22;4255;48.730;9.156;2022-08-19T10:28:26;21.10;99.90
8436;DHT22;4255;48.730;9.156;2022-08-19T10:30:52;21.00;99.90
8436;DHT22;4255;48.730;9.156;2022-08-19T10:33:18;21.00;99.90
8436;DHT22;4255;48.730;9.156;2022-08-19T10:35:43;21.10;99.90
8436;DHT22;4255;48.730;9.156;2022-08-19T10:38:11;21.10;99.90
8436;DHT22;4255;48.730;9.156;2022-08-19T10:40:37;21.20;99.90
8436;DHT22;4255;48.730;9.156;2022-08-19T10:43:03;21.40;99.90
8436;DHT22;4255;48.730;9.156;2022-08-19T10:45:28;21.60;99.90
8436;DHT22;4255;48.730;9.156;2022-08-19T10:47:54;21.50;99.90
8436;DHT22;4255;48.730;9.156;2022-08-19T10:50:20;21.50;99.90
8436;DHT22;4255;48.730;9.156;2022-08-19T10:53:07;21.40;99.90
8436;DHT22;4255;48.730;9.156;2022-08-19T10:55:36;21.40;99.90
8436;DHT22;4255;48.730;9.156;2022-08-19T10:58:21;21.40;99.90
8436;DHT22;4255;48.730;9.156;2022-08-19T11:00:55;21.60;99.90
8436;DHT22;4255;48.730;9.156;2022-08-19T11:03:21;21.70;99.90
8436;DHT22;4255;48.730;9.156;2022-08-19T11:05:57;21.80;99.90
8436;DHT22;4255;48.730;9.156;2022-08-19T11:08:23;21.80;99.90
8436;DHT22;4255;48.730;9.156;2022-08-19T11:10:53;21.80;99.90
8436;DHT22;4255;48.730;9.156;2022-08-19T11:13:22;21.60;99.90
8436;DHT22;4255;48.730;9.156;2022-08-19T11:15:59;21.40;99.90
8436;DHT22;4255;48.730;9.156;2022-08-19T11:18:25;21.40;99.90
8436;DHT22;4255;48.730;9.156;2022-08-19T11:20:51;21.50;99.90
8436;DHT22;4255;48.730;9.156;2022-08-19T11:23:18;21.60;99.90
8436;DHT22;4255;48.730;9.156;2022-08-19T11:25:44;21.70;99.90
8436;DHT22;4255;48.730;9.156;2022-08-19T11:28:11;21.80;99.90
8436;DHT22;4255;48.730;9.156;2022-08-19T11:30:38;21.90;99.90
8436;DHT22;4255;48.730;9.156;2022-08-19T11:33:04;22.20;99.90
8436;DHT22;4255;48.730;9.156;2022-08-19T11:35:29;22.50;99.90
8436;DHT22;4255;48.730;9.156;2022-08-19T11:37:55;22.80;99.90
8436;DHT22;4255;48.730;9.156;2022-08-19T11:40:23;23.10;99.90
8436;DHT22;4255;48.730;9.156;2022-08-19T11:42:48;23.50;99.90
8436;DHT22;4255;48.730;9.156;2022-08-19T11:45:24;23.80;99.90
8436;DHT22;4255;48.730;9.156;2022-08-19T11:47:50;23.90;99.90
8436;DHT22;4255;48.730;9.156;2022-08-19T11:50:16;24.00;99.90
8436;DHT22;4255;48.730;9.156;2022-08-19T11:52:43;23.90;99.90
8436;DHT22;4255;48.730;9.156;2022-08-19T11:55:09;23.80;99.90
8436;DHT22;4255;48.730;9.156;2022-08-19T11:57:35;23.80;99.90
8436;DHT22;4255;48.730;9.156;2022-08-19T12:00:01;24.00;99.90
8436;DHT22;4255;48.730;9.156;2022-08-19T12:02:27;24.00;99.90
8436;DHT22;4255;48.730;9.156;2022-08-19T12:04:52;24.10;99.90
8436;DHT22;4255;48.730;9.156;2022-08-19T12:07:19;24.30;99.90
8436;DHT22;4255;48.730;9.156;2022-08-19T12:09:44;24.40;99.90
8436;DHT22;4255;48.730;9.156;2022-08-19T12:12:10;24.30;99.90
8436;DHT22;4255;48.730;9.156;2022-08-19T12:14:36;24.20;99.90
8436;DHT22;4255;48.730;9.156;2022-08-19T12:17:02;24.10;99.90
8436;DHT22;4255;48.730;9.156;2022-08-19T12:19:29;24.20;99.90
8436;DHT22;4255;48.730;9.156;2022-08-19T12:21:59;24.20;99.90
8436;DHT22;4255;48.730;9.156;2022-08-19T12:24:26;24.30;99.90
8436;DHT22;4255;48.730;9.156;2022-08-19T12:26:52;24.20;99.90
8436;DHT22;4255;48.730;9.156;2022-08-19T12:29:21;24.10;99.90
8436;DHT22;4255;48.730;9.156;2022-08-19T12:31:47;24.10;99.90
8436;DHT22;4255;48.730;9.156;2022-08-19T12:34:12;24.10;99.90
8436;DHT22;4255;48.730;9.156;2022-08-19T12:36:38;24.30;99.90
8436;DHT22;4255;48.730;9.156;2022-08-19T12:39:04;24.30;99.90
8436;DHT22;4255;48.730;9.156;2022-08-19T12:41:30;24.30;99.90
8436;DHT22;4255;48.730;9.156;2022-08-19T12:43:56;24.60;99.90
8436;DHT22;4255;48.730;9.156;2022-08-19T12:46:23;24.90;99.90
8436;DHT22;4255;48.730;9.156;2022-08-19T12:48:49;24.50;99.90
8436;DHT22;4255;48.730;9.156;2022-08-19T12:51:17;24.30;99.90
8436;DHT22;4255;48.730;9.156;2022-08-19T12:53:45;23.80;99.90
8436;DHT22;4255;48.730;9.156;2022-08-19T12:56:11;23.40;99.90
8436;DHT22;4255;48.730;9.156;2022-08-19T12:58:39;23.30;99.90
8436;DHT22;4255;48.730;9.156;2022-08-19T13:01:14;23.30;99.90
8436;DHT22;4255;48.730;9.156;2022-08-19T13:03:40;23.30;99.90
8436;DHT22;4255;48.730;9.156;2022-08-19T13:06:06;23.30;99.90
8436;DHT22;4255;48.730;9.156;2022-08-19T13:08:32;23.10;99.90
8436;DHT22;4255;48.730;9.156;2022-08-19T13:10:57;23.00;99.90
8436;DHT22;4255;48.730;9.156;2022-08-19T13:13:31;23.00;99.90
8436;DHT22;4255;48.730;9.156;2022-08-19T13:16:00;23.00;99.90
8436;DHT22;4255;48.730;9.156;2022-08-19T13:18:29;23.10;99.90
8436;DHT22;4255;48.730;9.156;2022-08-19T13:20:54;23.10;99.90
8436;DHT22;4255;48.730;9.156;2022-08-19T13:23:21;23.20;99.90
8436;DHT22;4255;48.730;9.156;2022-08-19T13:25:59;23.10;99.90
8436;DHT22;4255;48.730;9.156;2022-08-19T13:28:25;23.00;99.90
8436;DHT22;4255;48.730;9.156;2022-08-19T13:30:51;22.80;99.90
8436;DHT22;4255;48.730;9.156;2022-08-19T13:33:45;22.80;99.90
8436;DHT22;4255;48.730;9.156;2022-08-19T13:36:11;22.70;99.90
8436;DHT22;4255;48.730;9.156;2022-08-19T13:38:36;22.40;99.90
8436;DHT22;4255;48.730;9.156;2022-08-19T13:41:05;22.40;99.90
8436;DHT22;4255;48.730;9.156;2022-08-19T13:43:30;22.30;99.90
8436;DHT22;4255;48.730;9.156;2022-08-19T13:45:56;22.30;99.90
8436;DHT22;4255;48.730;9.156;2022-08-19T13:48:22;22.40;99.90
8436;DHT22;4255;48.730;9.156;2022-08-19T13:50:48;22.50;99.90
8436;DHT22;4255;48.730;9.156;2022-08-19T13:53:15;22.50;99.90
8436;DHT22;4255;48.730;9.156;2022-08-19T13:55:42;22.30;99.90
8436;DHT22;4255;48.730;9.156;2022-08-19T13:58:09;22.20;99.90
8436;DHT22;4255;48.730;9.156;2022-08-19T14:00:39;22.30;99.90
8436;DHT22;4255;48.730;9.156;2022-08-19T14:03:05;22.20;99.90
8436;DHT22;4255;48.730;9.156;2022-08-19T14:05:31;22.30;99.90
8436;DHT22;4255;48.730;9.156;2022-08-19T14:07:58;22.30;99.90
8436;DHT22;4255;48.730;9.156;2022-08-19T14:10:25;22.30;99.90
8436;DHT22;4255;48.730;9.156;2022-08-19T14:12:55;22.20;99.90
8436;DHT22;4255;48.730;9.156;2022-08-19T14:15:23;22.20;99.90
8436;DHT22;4255;48.730;9.156;2022-08-19T14:17:49;22.00;99.90
8436;DHT22;4255;48.730;9.156;2022-08-19T14:20:15;21.90;99.90
8436;DHT22;4255;48.730;9.156;2022-08-19T14:22:43;22.10;99.90
8436;DHT22;4255;48.730;9.156;2022-08-19T14:25:11;22.40;99.90
8436;DHT22;4255;48.730;9.156;2022-08-19T14:27:39;22.60;99.90
8436;DHT22;4255;48.730;9.156;2022-08-19T14:30:07;22.70;99.90
8436;DHT22;4255;48.730;9.156;2022-08-19T14:32:34;22.80;99.90
8436;DHT22;4255;48.730;9.156;2022-08-19T14:34:59;22.90;99.90
8436;DHT22;4255;48.730;9.156;2022-08-19T14:37:25;23.00;99.90
8436;DHT22;4255;48.730;9.156;2022-08-19T14:39:51;22.90;99.90
8436;DHT22;4255;48.730;9.156;2022-08-19T14:42:17;22.80;99.90
8436;DHT22;4255;48.730;9.156;2022-08-19T14:44:43;22.90;99.90
8436;DHT22;4255;48.730;9.156;2022-08-19T14:47:09;22.90;99.90
8436;DHT22;4255;48.730;9.156;2022-08-19T14:49:35;23.00;99.90
8436;DHT22;4255;48.730;9.156;2022-08-19T14:52:01;23.10;99.90
8436;DHT22;4255;48.730;9.156;2022-08-19T14:54:28;23.20;99.90
8436;DHT22;4255;48.730;9.156;2022-08-19T14:56:54;23.00;99.90
8436;DHT22;4255;48.730;9.156;2022-08-19T14:59:19;23.10;99.90
8436;DHT22;4255;48.730;9.156;2022-08-19T15:01:45;23.10;99.90
8436;DHT22;4255;48.730;9.156;2022-08-19T15:04:11;23.10;99.90
8436;DHT22;4255;48.730;9.156;2022-08-19T15:06:37;23.20;99.90
8436;DHT22;4255;48.730;9.156;2022-08-19T15:09:03;23.40;99.90
8436;DHT22;4255;48.730;9.156;2022-08-19T15:11:29;23.40;99.90
8436;DHT22;4255;48.730;9.156;2022-08-19T15:13:55;23.40;99.90
8436;DHT22;4255;48.730;9.156;2022-08-19T15:16:23;23.40;99.90
8436;DHT22;4255;48.730;9.156;2022-08-19T15:18:52;23.40;99.90
8436;DHT22;4255;48.730;9.156;2022-08-19T15:21:18;23.40;99.90
8436;DHT22;4255;48.730;9.156;2022-08-19T15:23:45;23.50;99.90
8436;DHT22;4255;48.730;9.156;2022-08-19T15:26:11;23.70;99.90
8436;DHT22;4255;48.730;9.156;2022-08-19T15:28:38;23.90;99.90
8436;DHT22;4255;48.730;9.156;2022-08-19T15:31:04;24.10;99.90
8436;DHT22;4255;48.730;9.156;2022-08-19T15:33:34;24.20;99.90
8436;DHT22;4255;48.730;9.156;2022-08-19T15:36:03;24.20;99.90
8436;DHT22;4255;48.730;9.156;2022-08-19T15:38:31;24.30;99.90
8436;DHT22;4255;48.730;9.156;2022-08-19T15:40:59;24.20;99.90
8436;DHT22;4255;48.730;9.156;2022-08-19T15:43:46;24.20;99.90
8436;DHT22;4255;48.730;9.156;2022-08-19T15:46:16;24.30;99.90
8436;DHT22;4255;48.730;9.156;2022-08-19T15:48:42;24.30;99.90
8436;DHT22;4255;48.730;9.156;2022-08-19T15:51:08;24.30;99.90
8436;DHT22;4255;48.730;9.156;2022-08-19T15:53:33;24.40;99.90
8436;DHT22;4255;48.730;9.156;2022-08-19T15:55:59;24.30;99.90
8436;DHT22;4255;48.730;9.156;2022-08-19T15:58:25;24.30;99.90
8436;DHT22;4255;48.730;9.156;2022-08-19T16:01:09;24.30;99.90
8436;DHT22;4255;48.730;9.156;2022-08-19T16:03:55;24.40;99.90
8436;DHT22;4255;48.730;9.156;2022-08-19T16:07:02;24.70;99.90
8436;DHT22;4255;48.730;9.156;2022-08-19T16:09:29;24.80;99.90
8436;DHT22;4255;48.730;9.156;2022-08-19T16:11:58;24.90;99.90
8436;DHT22;4255;48.730;9.156;2022-08-19T16:14:26;24.80;99.90
8436;DHT22;4255;48.730;9.156;2022-08-19T16:16:53;24.80;99.90
8436;DHT22;4255;48.730;9.156;2022-08-19T16:19:21;24.70;99.90